sensor_id;sensor_type;location;lat;lon;timestamp;temperature;humidity
68912;SHT31;55953;51.650;-0.522;2024-01-25T00:00:12;5.64;83.69
68912;SHT31;55953;51.650;-0.522;2024-01-25T00:03:01;5.61;83.77
68912;SHT31;55953;51.650;-0.522;2024-01-25T00:05:29;5.59;83.68
68912;SHT31;55953;51.650;-0.522;2024-01-25T00:07:57;5.65;83.84
68912;SHT31;55953;51.650;-0.522;2024-01-25T00:10:25;5.73;83.63
68912;SHT31;55953;51.650;-0.522;2024-01-25T00:12:53;5.67;83.44
68912;SHT31;55953;51.650;-0.522;2024-01-25T00:15:22;5.64;83.43
68912;SHT31;55953;51.650;-0.522;2024-01-25T00:17:50;5.61;83.40
68912;SHT31;55953;51.650;-0.522;2024-01-25T00:20:18;5.62;83.33
68912;SHT31;55953;51.650;-0.522;2024-01-25T00:22:46;5.64;83.33
68912;SHT31;55953;51.650;-0.522;2024-01-25T00:25:14;5.66;83.18
68912;SHT31;55953;51.650;-0.522;2024-01-25T00:27:42;5.71;83.31
68912;SHT31;55953;51.650;-0.522;2024-01-25T00:30:13;5.69;83.04
68912;SHT31;55953;51.650;-0.522;2024-01-25T00:32:41;5.63;83.11
68912;SHT31;55953;51.650;-0.522;2024-01-25T00:35:09;5.60;83.10
68912;SHT31;55953;51.650;-0.522;2024-01-25T00:37:39;5.51;83.04
68912;SHT31;55953;51.650;-0.522;2024-01-25T00:40:08;5.52;83.33
68912;SHT31;55953;51.650;-0.522;2024-01-25T00:42:43;5.53;83.26
68912;SHT31;55953;51.650;-0.522;2024-01-25T00:45:21;5.53;83.40
68912;SHT31;55953;51.650;-0.522;2024-01-25T00:47:51;5.47;83.44
68912;SHT31;55953;51.650;-0.522;2024-01-25T00:50:19;5.43;83.52
68912;SHT31;55953;51.650;-0.522;2024-01-25T00:52:52;5.38;83.60
68912;SHT31;55953;51.650;-0.522;2024-01-25T00:55:20;5.39;83.67
68912;SHT31;55953;51.650;-0.522;2024-01-25T00:57:49;5.34;83.45
68912;SHT31;55953;51.650;-0.522;2024-01-25T01:00:19;5.41;83.43
68912;SHT31;55953;51.650;-0.522;2024-01-25T01:02:48;5.43;83.02
68912;SHT31;55953;51.650;-0.522;2024-01-25T01:05:17;5.35;82.94
68912;SHT31;55953;51.650;-0.522;2024-01-25T01:07:45;5.27;82.93
68912;SHT31;55953;51.650;-0.522;2024-01-25T01:10:14;5.23;83.11
68912;SHT31;55953;51.650;-0.522;2024-01-25T01:12:42;5.26;83.41
68912;SHT31;55953;51.650;-0.522;2024-01-25T01:15:11;5.24;83.34
68912;SHT31;55953;51.650;-0.522;2024-01-25T01:17:39;5.23;83.85
68912;SHT31;55953;51.650;-0.522;2024-01-25T01:20:07;5.27;84.33
68912;SHT31;55953;51.650;-0.522;2024-01-25T01:22:35;5.32;84.59
68912;SHT31;55953;51.650;-0.522;2024-01-25T01:25:04;5.42;84.91
68912;SHT31;55953;51.650;-0.522;2024-01-25T01:27:32;5.50;84.90
68912;SHT31;55953;51.650;-0.522;2024-01-25T01:30:00;5.52;85.07
68912;SHT31;55953;51.650;-0.522;2024-01-25T01:32:28;5.56;85.21
68912;SHT31;55953;51.650;-0.522;2024-01-25T01:34:56;5.62;85.26
68912;SHT31;55953;51.650;-0.522;2024-01-25T01:37:24;5.70;85.40
68912;SHT31;55953;51.650;-0.522;2024-01-25T01:39:52;5.74;85.27
68912;SHT31;55953;51.650;-0.522;2024-01-25T01:42:23;5.78;85.27
68912;SHT31;55953;51.650;-0.522;2024-01-25T01:44:52;5.79;85.19
68912;SHT31;55953;51.650;-0.522;2024-01-25T01:47:20;5.79;85.27
68912;SHT31;55953;51.650;-0.522;2024-01-25T01:49:48;5.79;85.27
68912;SHT31;55953;51.650;-0.522;2024-01-25T01:52:18;5.78;85.19
68912;SHT31;55953;51.650;-0.522;2024-01-25T01:54:46;5.80;85.08
68912;SHT31;55953;51.650;-0.522;2024-01-25T01:57:16;5.80;84.65
68912;SHT31;55953;51.650;-0.522;2024-01-25T01:59:44;5.74;84.25
68912;SHT31;55953;51.650;-0.522;2024-01-25T02:02:12;5.68;84.32
68912;SHT31;55953;51.650;-0.522;2024-01-25T02:04:40;5.66;84.35
68912;SHT31;55953;51.650;-0.522;2024-01-25T02:07:09;5.59;84.29
68912;SHT31;55953;51.650;-0.522;2024-01-25T02:09:39;5.46;84.38
68912;SHT31;55953;51.650;-0.522;2024-01-25T02:12:07;5.34;84.60
68912;SHT31;55953;51.650;-0.522;2024-01-25T02:14:35;5.21;84.57
68912;SHT31;55953;51.650;-0.522;2024-01-25T02:17:03;5.16;84.64
68912;SHT31;55953;51.650;-0.522;2024-01-25T02:19:31;5.15;84.58
68912;SHT31;55953;51.650;-0.522;2024-01-25T02:21:59;5.17;84.64
68912;SHT31;55953;51.650;-0.522;2024-01-25T02:24:30;5.17;84.34
68912;SHT31;55953;51.650;-0.522;2024-01-25T02:26:58;5.17;84.32
68912;SHT31;55953;51.650;-0.522;2024-01-25T02:29:27;5.26;84.16
68912;SHT31;55953;51.650;-0.522;2024-01-25T02:31:55;5.24;83.97
68912;SHT31;55953;51.650;-0.522;2024-01-25T02:34:22;5.23;84.04
68912;SHT31;55953;51.650;-0.522;2024-01-25T02:36:50;5.23;84.15
68912;SHT31;55953;51.650;-0.522;2024-01-25T02:39:18;5.32;84.29
68912;SHT31;55953;51.650;-0.522;2024-01-25T02:41:46;5.25;83.88
68912;SHT31;55953;51.650;-0.522;2024-01-25T02:44:14;5.12;84.11
68912;SHT31;55953;51.650;-0.522;2024-01-25T02:46:42;5.02;84.00
68912;SHT31;55953;51.650;-0.522;2024-01-25T02:49:12;4.94;84.12
68912;SHT31;55953;51.650;-0.522;2024-01-25T02:51:40;4.94;84.01
68912;SHT31;55953;51.650;-0.522;2024-01-25T02:54:08;4.89;83.97
68912;SHT31;55953;51.650;-0.522;2024-01-25T02:56:36;4.96;84.08
68912;SHT31;55953;51.650;-0.522;2024-01-25T02:59:04;4.99;83.74
68912;SHT31;55953;51.650;-0.522;2024-01-25T03:01:41;4.97;83.77
68912;SHT31;55953;51.650;-0.522;2024-01-25T03:04:09;5.02;84.00
68912;SHT31;55953;51.650;-0.522;2024-01-25T03:06:38;5.12;83.92
68912;SHT31;55953;51.650;-0.522;2024-01-25T03:09:06;5.22;83.92
68912;SHT31;55953;51.650;-0.522;2024-01-25T03:11:34;5.19;83.79
68912;SHT31;55953;51.650;-0.522;2024-01-25T03:14:02;5.02;83.67
68912;SHT31;55953;51.650;-0.522;2024-01-25T03:16:30;4.87;83.67
68912;SHT31;55953;51.650;-0.522;2024-01-25T03:18:58;4.77;83.96
68912;SHT31;55953;51.650;-0.522;2024-01-25T03:21:26;4.71;84.02
68912;SHT31;55953;51.650;-0.522;2024-01-25T03:23:54;4.71;84.16
68912;SHT31;55953;51.650;-0.522;2024-01-25T03:26:22;4.75;84.21
68912;SHT31;55953;51.650;-0.522;2024-01-25T03:28:50;4.78;84.17
68912;SHT31;55953;51.650;-0.522;2024-01-25T03:31:17;4.81;84.31
68912;SHT31;55953;51.650;-0.522;2024-01-25T03:33:46;4.96;84.53
68912;SHT31;55953;51.650;-0.522;2024-01-25T03:36:14;5.14;84.41
68912;SHT31;55953;51.650;-0.522;2024-01-25T03:38:45;5.28;84.15
68912;SHT31;55953;51.650;-0.522;2024-01-25T03:41:13;5.43;84.03
68912;SHT31;55953;51.650;-0.522;2024-01-25T03:43:41;5.44;83.59
68912;SHT31;55953;51.650;-0.522;2024-01-25T03:46:11;5.33;83.48
68912;SHT31;55953;51.650;-0.522;2024-01-25T03:48:40;5.36;83.86
68912;SHT31;55953;51.650;-0.522;2024-01-25T03:51:08;5.42;83.83
68912;SHT31;55953;51.650;-0.522;2024-01-25T03:53:36;5.40;83.65
68912;SHT31;55953;51.650;-0.522;2024-01-25T03:56:10;5.36;83.74
68912;SHT31;55953;51.650;-0.522;2024-01-25T03:58:40;5.42;84.01
68912;SHT31;55953;51.650;-0.522;2024-01-25T04:01:08;5.51;84.01
68912;SHT31;55953;51.650;-0.522;2024-01-25T04:03:36;5.67;84.01
68912;SHT31;55953;51.650;-0.522;2024-01-25T04:06:05;5.73;83.89
68912;SHT31;55953;51.650;-0.522;2024-01-25T04:08:33;5.80;83.98
68912;SHT31;55953;51.650;-0.522;2024-01-25T04:11:01;5.87;84.04
68912;SHT31;55953;51.650;-0.522;2024-01-25T04:13:29;5.88;83.98
68912;SHT31;55953;51.650;-0.522;2024-01-25T04:15:57;5.84;83.88
68912;SHT31;55953;51.650;-0.522;2024-01-25T04:18:25;5.82;83.80
68912;SHT31;55953;51.650;-0.522;2024-01-25T04:20:53;5.87;83.96
68912;SHT31;55953;51.650;-0.522;2024-01-25T04:23:21;5.94;83.88
68912;SHT31;55953;51.650;-0.522;2024-01-25T04:25:49;6.02;83.85
68912;SHT31;55953;51.650;-0.522;2024-01-25T04:28:17;6.05;83.72
68912;SHT31;55953;51.650;-0.522;2024-01-25T04:30:45;6.09;83.83
68912;SHT31;55953;51.650;-0.522;2024-01-25T04:33:13;6.20;83.98
68912;SHT31;55953;51.650;-0.522;2024-01-25T04:35:41;6.35;83.81
68912;SHT31;55953;51.650;-0.522;2024-01-25T04:38:11;6.42;83.76
68912;SHT31;55953;51.650;-0.522;2024-01-25T04:40:39;6.46;83.66
68912;SHT31;55953;51.650;-0.522;2024-01-25T04:43:07;6.49;83.73
68912;SHT31;55953;51.650;-0.522;2024-01-25T04:45:35;6.49;83.79
68912;SHT31;55953;51.650;-0.522;2024-01-25T04:48:03;6.53;83.93
68912;SHT31;55953;51.650;-0.522;2024-01-25T04:50:33;6.57;83.86
68912;SHT31;55953;51.650;-0.522;2024-01-25T04:53:02;6.59;83.84
68912;SHT31;55953;51.650;-0.522;2024-01-25T04:55:30;6.61;83.86
68912;SHT31;55953;51.650;-0.522;2024-01-25T04:57:58;6.66;83.79
68912;SHT31;55953;51.650;-0.522;2024-01-25T05:00:26;6.67;83.73
68912;SHT31;55953;51.650;-0.522;2024-01-25T05:02:54;6.67;83.63
68912;SHT31;55953;51.650;-0.522;2024-01-25T05:05:22;6.69;83.77
68912;SHT31;55953;51.650;-0.522;2024-01-25T05:07:50;6.75;83.76
68912;SHT31;55953;51.650;-0.522;2024-01-25T05:10:18;6.76;83.60
68912;SHT31;55953;51.650;-0.522;2024-01-25T05:12:46;6.78;83.67
68912;SHT31;55953;51.650;-0.522;2024-01-25T05:15:14;6.78;83.53
68912;SHT31;55953;51.650;-0.522;2024-01-25T05:17:42;6.77;83.59
68912;SHT31;55953;51.650;-0.522;2024-01-25T05:20:10;6.72;83.58
68912;SHT31;55953;51.650;-0.522;2024-01-25T05:22:40;6.67;83.72
68912;SHT31;55953;51.650;-0.522;2024-01-25T05:25:09;6.67;83.87
68912;SHT31;55953;51.650;-0.522;2024-01-25T05:27:37;6.69;84.03
68912;SHT31;55953;51.650;-0.522;2024-01-25T05:30:05;6.72;83.96
68912;SHT31;55953;51.650;-0.522;2024-01-25T05:32:34;6.79;84.06
68912;SHT31;55953;51.650;-0.522;2024-01-25T05:35:02;6.87;84.00
68912;SHT31;55953;51.650;-0.522;2024-01-25T05:37:32;6.93;83.88
68912;SHT31;55953;51.650;-0.522;2024-01-25T05:40:01;6.91;83.70
68912;SHT31;55953;51.650;-0.522;2024-01-25T05:42:29;6.89;83.86
68912;SHT31;55953;51.650;-0.522;2024-01-25T05:44:57;6.97;83.99
68912;SHT31;55953;51.650;-0.522;2024-01-25T05:47:25;6.97;83.80
68912;SHT31;55953;51.650;-0.522;2024-01-25T05:49:53;6.94;83.81
68912;SHT31;55953;51.650;-0.522;2024-01-25T05:52:21;6.97;84.08
68912;SHT31;55953;51.650;-0.522;2024-01-25T05:54:51;6.99;83.90
68912;SHT31;55953;51.650;-0.522;2024-01-25T05:57:19;6.97;83.95
68912;SHT31;55953;51.650;-0.522;2024-01-25T05:59:48;6.98;84.10
68912;SHT31;55953;51.650;-0.522;2024-01-25T06:02:16;7.01;84.04
68912;SHT31;55953;51.650;-0.522;2024-01-25T06:04:43;7.06;84.04
68912;SHT31;55953;51.650;-0.522;2024-01-25T06:07:12;7.07;83.96
68912;SHT31;55953;51.650;-0.522;2024-01-25T06:09:40;7.10;84.07
68912;SHT31;55953;51.650;-0.522;2024-01-25T06:12:08;7.20;84.08
68912;SHT31;55953;51.650;-0.522;2024-01-25T06:14:36;7.28;83.94
68912;SHT31;55953;51.650;-0.522;2024-01-25T06:17:04;7.33;83.88
68912;SHT31;55953;51.650;-0.522;2024-01-25T06:19:32;7.31;83.74
68912;SHT31;55953;51.650;-0.522;2024-01-25T06:22:02;7.32;83.79
68912;SHT31;55953;51.650;-0.522;2024-01-25T06:24:30;7.35;83.81
68912;SHT31;55953;51.650;-0.522;2024-01-25T06:26:58;7.40;83.76
68912;SHT31;55953;51.650;-0.522;2024-01-25T06:29:26;7.46;83.80
68912;SHT31;55953;51.650;-0.522;2024-01-25T06:31:54;7.49;83.64
68912;SHT31;55953;51.650;-0.522;2024-01-25T06:34:23;7.48;83.56
68912;SHT31;55953;51.650;-0.522;2024-01-25T06:36:51;7.45;83.56
68912;SHT31;55953;51.650;-0.522;2024-01-25T06:39:19;7.43;83.61
68912;SHT31;55953;51.650;-0.522;2024-01-25T06:41:47;7.44;83.66
68912;SHT31;55953;51.650;-0.522;2024-01-25T06:44:15;7.44;83.65
68912;SHT31;55953;51.650;-0.522;2024-01-25T06:46:44;7.48;83.72
68912;SHT31;55953;51.650;-0.522;2024-01-25T06:49:12;7.50;83.69
68912;SHT31;55953;51.650;-0.522;2024-01-25T06:51:41;7.54;83.59
68912;SHT31;55953;51.650;-0.522;2024-01-25T06:54:09;7.61;83.64
68912;SHT31;55953;51.650;-0.522;2024-01-25T06:56:37;7.67;83.44
68912;SHT31;55953;51.650;-0.522;2024-01-25T06:59:05;7.67;83.43
68912;SHT31;55953;51.650;-0.522;2024-01-25T07:01:34;7.62;83.37
68912;SHT31;55953;51.650;-0.522;2024-01-25T07:04:03;7.61;83.63
68912;SHT31;55953;51.650;-0.522;2024-01-25T07:06:32;7.69;83.73
68912;SHT31;55953;51.650;-0.522;2024-01-25T07:09:00;7.76;83.57
68912;SHT31;55953;51.650;-0.522;2024-01-25T07:11:28;7.72;83.50
68912;SHT31;55953;51.650;-0.522;2024-01-25T07:13:57;7.71;83.58
68912;SHT31;55953;51.650;-0.522;2024-01-25T07:16:25;7.69;83.79
68912;SHT31;55953;51.650;-0.522;2024-01-25T07:18:53;7.74;83.89
68912;SHT31;55953;51.650;-0.522;2024-01-25T07:21:21;7.74;83.78
68912;SHT31;55953;51.650;-0.522;2024-01-25T07:23:49;7.78;83.95
68912;SHT31;55953;51.650;-0.522;2024-01-25T07:26:18;7.81;84.03
68912;SHT31;55953;51.650;-0.522;2024-01-25T07:28:46;7.92;83.91
68912;SHT31;55953;51.650;-0.522;2024-01-25T07:31:14;7.88;83.79
68912;SHT31;55953;51.650;-0.522;2024-01-25T07:33:43;7.82;83.93
68912;SHT31;55953;51.650;-0.522;2024-01-25T07:36:11;7.79;84.17
68912;SHT31;55953;51.650;-0.522;2024-01-25T07:38:42;7.78;84.47
68912;SHT31;55953;51.650;-0.522;2024-01-25T07:41:10;7.80;84.63
68912;SHT31;55953;51.650;-0.522;2024-01-25T07:43:38;7.81;84.78
68912;SHT31;55953;51.650;-0.522;2024-01-25T07:46:06;7.84;84.95
68912;SHT31;55953;51.650;-0.522;2024-01-25T07:48:34;7.92;85.39
68912;SHT31;55953;51.650;-0.522;2024-01-25T07:51:02;8.02;85.62
68912;SHT31;55953;51.650;-0.522;2024-01-25T07:53:31;8.10;85.62
68912;SHT31;55953;51.650;-0.522;2024-01-25T07:55:59;8.12;85.73
68912;SHT31;55953;51.650;-0.522;2024-01-25T07:58:26;8.17;85.94
68912;SHT31;55953;51.650;-0.522;2024-01-25T08:00:58;8.22;85.90
68912;SHT31;55953;51.650;-0.522;2024-01-25T08:03:26;8.28;86.17
68912;SHT31;55953;51.650;-0.522;2024-01-25T08:05:54;8.34;86.13
68912;SHT31;55953;51.650;-0.522;2024-01-25T08:08:22;8.38;86.23
68912;SHT31;55953;51.650;-0.522;2024-01-25T08:10:50;8.41;86.24
68912;SHT31;55953;51.650;-0.522;2024-01-25T08:13:18;8.46;86.51
68912;SHT31;55953;51.650;-0.522;2024-01-25T08:15:46;8.52;86.57
68912;SHT31;55953;51.650;-0.522;2024-01-25T08:18:14;8.58;86.54
68912;SHT31;55953;51.650;-0.522;2024-01-25T08:20:42;8.64;86.51
68912;SHT31;55953;51.650;-0.522;2024-01-25T08:23:11;8.69;86.47
68912;SHT31;55953;51.650;-0.522;2024-01-25T08:25:39;8.72;86.46
68912;SHT31;55953;51.650;-0.522;2024-01-25T08:28:08;8.75;86.53
68912;SHT31;55953;51.650;-0.522;2024-01-25T08:30:36;8.85;86.66
68912;SHT31;55953;51.650;-0.522;2024-01-25T08:33:06;8.95;86.64
68912;SHT31;55953;51.650;-0.522;2024-01-25T08:35:34;9.01;86.46
68912;SHT31;55953;51.650;-0.522;2024-01-25T08:38:03;9.04;86.36
68912;SHT31;55953;51.650;-0.522;2024-01-25T08:40:31;9.08;86.42
68912;SHT31;55953;51.650;-0.522;2024-01-25T08:42:59;9.15;86.42
68912;SHT31;55953;51.650;-0.522;2024-01-25T08:45:27;9.21;86.34
68912;SHT31;55953;51.650;-0.522;2024-01-25T08:47:55;9.26;86.43
68912;SHT31;55953;51.650;-0.522;2024-01-25T08:50:23;9.33;86.43
68912;SHT31;55953;51.650;-0.522;2024-01-25T08:52:54;9.38;86.37
68912;SHT31;55953;51.650;-0.522;2024-01-25T08:55:22;9.43;86.43
68912;SHT31;55953;51.650;-0.522;2024-01-25T08:57:50;9.48;86.50
68912;SHT31;55953;51.650;-0.522;2024-01-25T09:00:19;9.51;86.46
68912;SHT31;55953;51.650;-0.522;2024-01-25T09:02:47;9.57;86.44
68912;SHT31;55953;51.650;-0.522;2024-01-25T09:05:15;9.64;86.36
68912;SHT31;55953;51.650;-0.522;2024-01-25T09:07:43;9.65;86.31
68912;SHT31;55953;51.650;-0.522;2024-01-25T09:10:11;9.64;86.26
68912;SHT31;55953;51.650;-0.522;2024-01-25T09:12:39;9.68;86.43
68912;SHT31;55953;51.650;-0.522;2024-01-25T09:15:07;9.72;86.40
68912;SHT31;55953;51.650;-0.522;2024-01-25T09:17:36;9.73;86.32
68912;SHT31;55953;51.650;-0.522;2024-01-25T09:20:05;9.75;86.38
68912;SHT31;55953;51.650;-0.522;2024-01-25T09:22:35;9.81;86.43
68912;SHT31;55953;51.650;-0.522;2024-01-25T09:25:04;9.83;86.38
68912;SHT31;55953;51.650;-0.522;2024-01-25T09:27:35;9.88;86.52
68912;SHT31;55953;51.650;-0.522;2024-01-25T09:30:06;9.94;86.40
68912;SHT31;55953;51.650;-0.522;2024-01-25T09:32:35;9.98;86.33
68912;SHT31;55953;51.650;-0.522;2024-01-25T09:35:03;10.04;86.47
68912;SHT31;55953;51.650;-0.522;2024-01-25T09:37:32;10.11;86.38
68912;SHT31;55953;51.650;-0.522;2024-01-25T09:40:00;10.15;86.30
68912;SHT31;55953;51.650;-0.522;2024-01-25T09:42:28;10.21;86.31
68912;SHT31;55953;51.650;-0.522;2024-01-25T09:44:56;10.27;86.21
68912;SHT31;55953;51.650;-0.522;2024-01-25T09:47:25;10.34;86.25
68912;SHT31;55953;51.650;-0.522;2024-01-25T09:49:53;10.44;86.25
68912;SHT31;55953;51.650;-0.522;2024-01-25T09:52:22;10.50;86.02
68912;SHT31;55953;51.650;-0.522;2024-01-25T09:54:54;10.53;85.95
68912;SHT31;55953;51.650;-0.522;2024-01-25T09:57:24;10.58;86.05
68912;SHT31;55953;51.650;-0.522;2024-01-25T09:59:55;10.59;85.95
68912;SHT31;55953;51.650;-0.522;2024-01-25T10:02:23;10.65;85.98
68912;SHT31;55953;51.650;-0.522;2024-01-25T10:04:52;10.66;85.65
68912;SHT31;55953;51.650;-0.522;2024-01-25T10:07:37;10.68;85.76
68912;SHT31;55953;51.650;-0.522;2024-01-25T10:10:11;10.68;85.61
68912;SHT31;55953;51.650;-0.522;2024-01-25T10:12:41;10.70;85.65
68912;SHT31;55953;51.650;-0.522;2024-01-25T10:15:10;10.68;85.55
68912;SHT31;55953;51.650;-0.522;2024-01-25T10:17:39;10.68;85.57
68912;SHT31;55953;51.650;-0.522;2024-01-25T10:20:27;10.70;85.64
68912;SHT31;55953;51.650;-0.522;2024-01-25T10:22:59;10.74;85.61
68912;SHT31;55953;51.650;-0.522;2024-01-25T10:25:28;10.75;85.54
68912;SHT31;55953;51.650;-0.522;2024-01-25T10:27:57;10.75;85.59
68912;SHT31;55953;51.650;-0.522;2024-01-25T10:30:26;10.77;85.56
68912;SHT31;55953;51.650;-0.522;2024-01-25T10:32:55;10.76;85.51
68912;SHT31;55953;51.650;-0.522;2024-01-25T10:35:25;10.73;85.43
68912;SHT31;55953;51.650;-0.522;2024-01-25T10:37:55;10.71;85.54
68912;SHT31;55953;51.650;-0.522;2024-01-25T10:40:23;10.67;85.58
68912;SHT31;55953;51.650;-0.522;2024-01-25T10:42:52;10.66;85.70
68912;SHT31;55953;51.650;-0.522;2024-01-25T10:45:20;10.69;85.78
68912;SHT31;55953;51.650;-0.522;2024-01-25T10:47:48;10.69;85.73
68912;SHT31;55953;51.650;-0.522;2024-01-25T10:50:17;10.72;85.77
68912;SHT31;55953;51.650;-0.522;2024-01-25T10:52:46;10.76;85.81
68912;SHT31;55953;51.650;-0.522;2024-01-25T10:55:15;10.81;85.76
68912;SHT31;55953;51.650;-0.522;2024-01-25T10:57:45;10.85;85.74
68912;SHT31;55953;51.650;-0.522;2024-01-25T11:00:14;10.88;85.79
68912;SHT31;55953;51.650;-0.522;2024-01-25T11:02:44;10.91;85.79
68912;SHT31;55953;51.650;-0.522;2024-01-25T11:05:17;10.95;85.74
68912;SHT31;55953;51.650;-0.522;2024-01-25T11:07:49;11.04;85.71
68912;SHT31;55953;51.650;-0.522;2024-01-25T11:10:20;11.14;85.64
68912;SHT31;55953;51.650;-0.522;2024-01-25T11:12:54;11.23;85.47
68912;SHT31;55953;51.650;-0.522;2024-01-25T11:15:31;11.38;85.41
68912;SHT31;55953;51.650;-0.522;2024-01-25T11:18:02;11.52;85.19
68912;SHT31;55953;51.650;-0.522;2024-01-25T11:20:35;11.64;85.00
68912;SHT31;55953;51.650;-0.522;2024-01-25T11:23:05;11.77;84.83
68912;SHT31;55953;51.650;-0.522;2024-01-25T11:25:37;11.92;84.63
68912;SHT31;55953;51.650;-0.522;2024-01-25T11:28:05;12.08;84.40
68912;SHT31;55953;51.650;-0.522;2024-01-25T11:30:35;12.22;84.15
68912;SHT31;55953;51.650;-0.522;2024-01-25T11:33:04;12.34;83.69
68912;SHT31;55953;51.650;-0.522;2024-01-25T11:35:35;12.42;83.61
68912;SHT31;55953;51.650;-0.522;2024-01-25T11:38:04;12.50;83.32
68912;SHT31;55953;51.650;-0.522;2024-01-25T11:40:32;12.54;82.84
68912;SHT31;55953;51.650;-0.522;2024-01-25T11:43:05;12.60;82.88
68912;SHT31;55953;51.650;-0.522;2024-01-25T11:45:39;12.65;82.71
68912;SHT31;55953;51.650;-0.522;2024-01-25T11:48:11;12.66;82.50
68912;SHT31;55953;51.650;-0.522;2024-01-25T11:50:39;12.69;82.42
68912;SHT31;55953;51.650;-0.522;2024-01-25T11:53:08;12.68;82.29
68912;SHT31;55953;51.650;-0.522;2024-01-25T11:55:37;12.73;82.22
68912;SHT31;55953;51.650;-0.522;2024-01-25T11:58:05;12.77;82.05
68912;SHT31;55953;51.650;-0.522;2024-01-25T12:00:34;12.85;81.94
68912;SHT31;55953;51.650;-0.522;2024-01-25T12:03:03;12.92;81.56
68912;SHT31;55953;51.650;-0.522;2024-01-25T12:05:32;12.96;81.31
68912;SHT31;55953;51.650;-0.522;2024-01-25T12:08:00;12.99;81.48
68912;SHT31;55953;51.650;-0.522;2024-01-25T12:10:28;12.99;81.33
68912;SHT31;55953;51.650;-0.522;2024-01-25T12:12:56;12.99;81.13
68912;SHT31;55953;51.650;-0.522;2024-01-25T12:15:24;13.00;81.03
68912;SHT31;55953;51.650;-0.522;2024-01-25T12:17:53;12.98;81.04
68912;SHT31;55953;51.650;-0.522;2024-01-25T12:20:22;13.00;80.99
68912;SHT31;55953;51.650;-0.522;2024-01-25T12:22:50;13.01;80.40
68912;SHT31;55953;51.650;-0.522;2024-01-25T12:25:18;13.02;80.64
68912;SHT31;55953;51.650;-0.522;2024-01-25T12:27:47;13.08;80.32
68912;SHT31;55953;51.650;-0.522;2024-01-25T12:30:17;13.15;80.40
68912;SHT31;55953;51.650;-0.522;2024-01-25T12:32:47;13.24;80.36
68912;SHT31;55953;51.650;-0.522;2024-01-25T12:35:19;13.30;79.94
68912;SHT31;55953;51.650;-0.522;2024-01-25T12:37:48;13.34;79.73
68912;SHT31;55953;51.650;-0.522;2024-01-25T12:40:16;13.37;79.56
68912;SHT31;55953;51.650;-0.522;2024-01-25T12:42:44;13.42;79.38
68912;SHT31;55953;51.650;-0.522;2024-01-25T12:45:13;13.47;79.46
68912;SHT31;55953;51.650;-0.522;2024-01-25T12:47:40;13.57;79.48
68912;SHT31;55953;51.650;-0.522;2024-01-25T12:50:09;13.71;79.46
68912;SHT31;55953;51.650;-0.522;2024-01-25T12:52:36;13.77;78.59
68912;SHT31;55953;51.650;-0.522;2024-01-25T12:55:05;13.84;78.87
68912;SHT31;55953;51.650;-0.522;2024-01-25T12:57:33;13.85;78.56
68912;SHT31;55953;51.650;-0.522;2024-01-25T13:00:02;13.85;78.33
68912;SHT31;55953;51.650;-0.522;2024-01-25T13:02:31;13.82;78.24
68912;SHT31;55953;51.650;-0.522;2024-01-25T13:04:59;13.80;78.17
68912;SHT31;55953;51.650;-0.522;2024-01-25T13:07:28;13.76;77.97
68912;SHT31;55953;51.650;-0.522;2024-01-25T13:09:56;13.69;77.69
68912;SHT31;55953;51.650;-0.522;2024-01-25T13:12:24;13.69;78.02
68912;SHT31;55953;51.650;-0.522;2024-01-25T13:14:52;13.69;77.73
68912;SHT31;55953;51.650;-0.522;2024-01-25T13:17:20;13.66;77.64
68912;SHT31;55953;51.650;-0.522;2024-01-25T13:19:49;13.64;77.67
68912;SHT31;55953;51.650;-0.522;2024-01-25T13:22:17;13.63;77.60
68912;SHT31;55953;51.650;-0.522;2024-01-25T13:24:48;13.63;77.57
68912;SHT31;55953;51.650;-0.522;2024-01-25T13:27:16;13.56;77.24
68912;SHT31;55953;51.650;-0.522;2024-01-25T13:29:45;13.53;77.30
68912;SHT31;55953;51.650;-0.522;2024-01-25T13:32:12;13.54;77.57
68912;SHT31;55953;51.650;-0.522;2024-01-25T13:34:40;13.58;77.65
68912;SHT31;55953;51.650;-0.522;2024-01-25T13:37:08;13.56;77.45
68912;SHT31;55953;51.650;-0.522;2024-01-25T13:39:36;13.54;77.27
68912;SHT31;55953;51.650;-0.522;2024-01-25T13:42:04;13.51;77.44
68912;SHT31;55953;51.650;-0.522;2024-01-25T13:44:32;13.51;77.31
68912;SHT31;55953;51.650;-0.522;2024-01-25T13:47:00;13.47;77.13
68912;SHT31;55953;51.650;-0.522;2024-01-25T13:49:29;13.45;77.27
68912;SHT31;55953;51.650;-0.522;2024-01-25T13:51:59;13.42;77.42
68912;SHT31;55953;51.650;-0.522;2024-01-25T13:54:29;13.38;77.43
68912;SHT31;55953;51.650;-0.522;2024-01-25T13:56:58;13.32;77.14
68912;SHT31;55953;51.650;-0.522;2024-01-25T13:59:26;13.32;77.55
68912;SHT31;55953;51.650;-0.522;2024-01-25T14:01:54;13.30;77.48
68912;SHT31;55953;51.650;-0.522;2024-01-25T14:04:22;13.26;77.59
68912;SHT31;55953;51.650;-0.522;2024-01-25T14:06:50;13.29;77.58
68912;SHT31;55953;51.650;-0.522;2024-01-25T14:09:18;13.31;77.47
68912;SHT31;55953;51.650;-0.522;2024-01-25T14:11:46;13.31;77.28
68912;SHT31;55953;51.650;-0.522;2024-01-25T14:14:15;13.30;77.24
68912;SHT31;55953;51.650;-0.522;2024-01-25T14:16:43;13.32;77.25
68912;SHT31;55953;51.650;-0.522;2024-01-25T14:19:11;13.34;77.17
68912;SHT31;55953;51.650;-0.522;2024-01-25T14:21:39;13.35;77.10
68912;SHT31;55953;51.650;-0.522;2024-01-25T14:24:08;13.35;77.05
68912;SHT31;55953;51.650;-0.522;2024-01-25T14:26:36;13.36;77.14
68912;SHT31;55953;51.650;-0.522;2024-01-25T14:29:04;13.40;77.25
68912;SHT31;55953;51.650;-0.522;2024-01-25T14:31:32;13.43;77.06
68912;SHT31;55953;51.650;-0.522;2024-01-25T14:34:00;13.40;76.88
68912;SHT31;55953;51.650;-0.522;2024-01-25T14:36:29;13.36;76.91
68912;SHT31;55953;51.650;-0.522;2024-01-25T14:38:57;13.36;77.12
68912;SHT31;55953;51.650;-0.522;2024-01-25T14:41:25;13.39;77.25
68912;SHT31;55953;51.650;-0.522;2024-01-25T14:43:53;13.41;77.34
68912;SHT31;55953;51.650;-0.522;2024-01-25T14:46:21;13.41;77.29
68912;SHT31;55953;51.650;-0.522;2024-01-25T14:48:48;13.42;77.37
68912;SHT31;55953;51.650;-0.522;2024-01-25T14:51:17;13.39;77.32
68912;SHT31;55953;51.650;-0.522;2024-01-25T14:53:45;13.38;77.34
68912;SHT31;55953;51.650;-0.522;2024-01-25T14:56:13;13.41;77.28
68912;SHT31;55953;51.650;-0.522;2024-01-25T14:58:41;13.42;77.22
68912;SHT31;55953;51.650;-0.522;2024-01-25T15:01:12;13.48;77.24
68912;SHT31;55953;51.650;-0.522;2024-01-25T15:03:50;13.50;76.98
68912;SHT31;55953;51.650;-0.522;2024-01-25T15:06:18;13.51;76.88
68912;SHT31;55953;51.650;-0.522;2024-01-25T15:08:46;13.48;76.79
68912;SHT31;55953;51.650;-0.522;2024-01-25T15:11:14;13.44;76.85
68912;SHT31;55953;51.650;-0.522;2024-01-25T15:13:42;13.44;76.81
68912;SHT31;55953;51.650;-0.522;2024-01-25T15:16:10;13.44;76.81
68912;SHT31;55953;51.650;-0.522;2024-01-25T15:18:38;13.48;76.80
68912;SHT31;55953;51.650;-0.522;2024-01-25T15:21:07;13.48;76.56
68912;SHT31;55953;51.650;-0.522;2024-01-25T15:23:35;13.42;76.56
68912;SHT31;55953;51.650;-0.522;2024-01-25T15:26:03;13.36;76.68
68912;SHT31;55953;51.650;-0.522;2024-01-25T15:28:33;13.31;76.85
68912;SHT31;55953;51.650;-0.522;2024-01-25T15:31:02;13.27;77.04
68912;SHT31;55953;51.650;-0.522;2024-01-25T15:33:30;13.23;77.06